sensor_id;sensor_type;location;lat;lon;timestamp;temperature;humidity
6752;DHT22;3413;47.680;9.166;2023-05-07T00:00:31;20.10;91.10
6752;DHT22;3413;47.680;9.166;2023-05-07T00:05:35;20.10;91.10
6752;DHT22;3413;47.680;9.166;2023-05-07T00:10:37;20.00;91.30
6752;DHT22;3413;47.680;9.166;2023-05-07T00:15:39;20.00;91.10
6752;DHT22;3413;47.680;9.166;2023-05-07T00:20:41;19.90;91.10
6752;DHT22;3413;47.680;9.166;2023-05-07T00:25:43;19.90;91.10
6752;DHT22;3413;47.680;9.166;2023-05-07T00:30:45;19.80;91.10
6752;DHT22;3413;47.680;9.166;2023-05-07T00:35:47;19.80;91.10
6752;DHT22;3413;47.680;9.166;2023-05-07T00:40:49;19.80;91.10
6752;DHT22;3413;47.680;9.166;2023-05-07T00:45:51;19.80;91.10
6752;DHT22;3413;47.680;9.166;2023-05-07T00:50:53;19.70;91.10
6752;DHT22;3413;47.680;9.166;2023-05-07T00:55:55;19.60;91.10
6752;DHT22;3413;47.680;9.166;2023-05-07T01:00:58;19.50;91.10
6752;DHT22;3413;47.680;9.166;2023-05-07T01:06:00;19.50;91.20
6752;DHT22;3413;47.680;9.166;2023-05-07T01:11:03;19.50;91.20
6752;DHT22;3413;47.680;9.166;2023-05-07T01:16:06;19.40;91.10
6752;DHT22;3413;47.680;9.166;2023-05-07T01:21:11;19.40;91.20
6752;DHT22;3413;47.680;9.166;2023-05-07T01:26:13;19.40;91.20
6752;DHT22;3413;47.680;9.166;2023-05-07T01:31:18;19.30;91.10
6752;DHT22;3413;47.680;9.166;2023-05-07T01:36:20;19.20;91.20
6752;DHT22;3413;47.680;9.166;2023-05-07T01:41:24;19.20;91.30
6752;DHT22;3413;47.680;9.166;2023-05-07T01:46:27;19.10;91.20
6752;DHT22;3413;47.680;9.166;2023-05-07T01:51:29;19.20;91.30
6752;DHT22;3413;47.680;9.166;2023-05-07T01:56:32;19.20;91.20
6752;DHT22;3413;47.680;9.166;2023-05-07T02:01:33;19.20;91.20
6752;DHT22;3413;47.680;9.166;2023-05-07T02:06:36;19.10;91.20
6752;DHT22;3413;47.680;9.166;2023-05-07T02:11:40;18.90;91.20
6752;DHT22;3413;47.680;9.166;2023-05-07T02:16:42;18.80;91.30
6752;DHT22;3413;47.680;9.166;2023-05-07T02:21:47;18.80;91.30
6752;DHT22;3413;47.680;9.166;2023-05-07T02:26:49;18.80;91.20
6752;DHT22;3413;47.680;9.166;2023-05-07T02:31:51;18.80;91.30
6752;DHT22;3413;47.680;9.166;2023-05-07T02:36:54;18.70;91.20
6752;DHT22;3413;47.680;9.166;2023-05-07T02:42:00;18.60;91.20
6752;DHT22;3413;47.680;9.166;2023-05-07T02:47:04;18.60;91.20
6752;DHT22;3413;47.680;9.166;2023-05-07T02:52:26;18.40;91.20
6752;DHT22;3413;47.680;9.166;2023-05-07T02:57:43;18.40;91.30
6752;DHT22;3413;47.680;9.166;2023-05-07T03:02:46;18.30;91.20
6752;DHT22;3413;47.680;9.166;2023-05-07T03:07:48;18.20;91.20
6752;DHT22;3413;47.680;9.166;2023-05-07T03:13:07;18.20;91.20
6752;DHT22;3413;47.680;9.166;2023-05-07T03:18:10;18.20;91.20
6752;DHT22;3413;47.680;9.166;2023-05-07T03:23:12;18.20;91.20
6752;DHT22;3413;47.680;9.166;2023-05-07T03:28:14;18.30;91.20
6752;DHT22;3413;47.680;9.166;2023-05-07T03:33:27;18.30;91.20
6752;DHT22;3413;47.680;9.166;2023-05-07T03:38:30;18.20;91.20
6752;DHT22;3413;47.680;9.166;2023-05-07T03:43:32;18.20;91.20
6752;DHT22;3413;47.680;9.166;2023-05-07T03:48:41;18.20;91.20
6752;DHT22;3413;47.680;9.166;2023-05-07T03:53:43;18.10;91.10
6752;DHT22;3413;47.680;9.166;2023-05-07T03:58:56;18.00;91.10
6752;DHT22;3413;47.680;9.166;2023-05-07T04:04:25;18.00;91.20
6752;DHT22;3413;47.680;9.166;2023-05-07T04:09:28;18.00;91.10
6752;DHT22;3413;47.680;9.166;2023-05-07T04:14:31;17.90;91.10
6752;DHT22;3413;47.680;9.166;2023-05-07T04:31:59;17.70;91.10
6752;DHT22;3413;47.680;9.166;2023-05-07T04:37:12;17.70;91.00
6752;DHT22;3413;47.680;9.166;2023-05-07T04:42:18;17.60;91.00
6752;DHT22;3413;47.680;9.166;2023-05-07T04:47:24;17.60;91.00
6752;DHT22;3413;47.680;9.166;2023-05-07T04:52:29;17.60;91.10
6752;DHT22;3413;47.680;9.166;2023-05-07T04:57:52;17.60;91.20
6752;DHT22;3413;47.680;9.166;2023-05-07T05:02:56;17.60;91.30
6752;DHT22;3413;47.680;9.166;2023-05-07T05:13:30;17.70;91.40
6752;DHT22;3413;47.680;9.166;2023-05-07T05:18:33;17.80;91.40
6752;DHT22;3413;47.680;9.166;2023-05-07T05:23:35;17.90;91.40
6752;DHT22;3413;47.680;9.166;2023-05-07T05:28:38;18.00;91.40
6752;DHT22;3413;47.680;9.166;2023-05-07T05:33:40;18.10;91.70
6752;DHT22;3413;47.680;9.166;2023-05-07T05:38:43;18.10;91.70
6752;DHT22;3413;47.680;9.166;2023-05-07T05:43:47;18.30;91.90
6752;DHT22;3413;47.680;9.166;2023-05-07T05:48:51;18.30;92.00
6752;DHT22;3413;47.680;9.166;2023-05-07T05:53:53;18.30;92.00
6752;DHT22;3413;47.680;9.166;2023-05-07T05:58:57;18.30;92.20
6752;DHT22;3413;47.680;9.166;2023-05-07T06:03:59;18.40;92.40
6752;DHT22;3413;47.680;9.166;2023-05-07T06:09:03;18.50;92.40
6752;DHT22;3413;47.680;9.166;2023-05-07T06:14:12;18.50;92.40
6752;DHT22;3413;47.680;9.166;2023-05-07T06:19:15;18.50;92.50
6752;DHT22;3413;47.680;9.166;2023-05-07T06:24:20;18.60;92.60
6752;DHT22;3413;47.680;9.166;2023-05-07T06:29:23;18.70;92.70
6752;DHT22;3413;47.680;9.166;2023-05-07T06:34:28;19.00;93.00
6752;DHT22;3413;47.680;9.166;2023-05-07T06:39:31;19.20;93.00
6752;DHT22;3413;47.680;9.166;2023-05-07T06:44:36;19.30;93.10
6752;DHT22;3413;47.680;9.166;2023-05-07T06:49:43;19.50;93.10
6752;DHT22;3413;47.680;9.166;2023-05-07T06:54:52;19.60;93.10
6752;DHT22;3413;47.680;9.166;2023-05-07T07:00:03;19.70;93.10
6752;DHT22;3413;47.680;9.166;2023-05-07T07:05:18;19.80;93.20
6752;DHT22;3413;47.680;9.166;2023-05-07T07:10:32;19.90;93.30
6752;DHT22;3413;47.680;9.166;2023-05-07T07:15:42;20.00;93.20
6752;DHT22;3413;47.680;9.166;2023-05-07T07:20:52;20.00;93.20
6752;DHT22;3413;47.680;9.166;2023-05-07T07:26:02;20.10;93.20
6752;DHT22;3413;47.680;9.166;2023-05-07T07:31:09;20.40;93.30
6752;DHT22;3413;47.680;9.166;2023-05-07T07:36:22;20.30;93.30
6752;DHT22;3413;47.680;9.166;2023-05-07T07:41:49;20.40;93.30
6752;DHT22;3413;47.680;9.166;2023-05-07T07:47:09;20.50;93.50
6752;DHT22;3413;47.680;9.166;2023-05-07T07:52:51;20.60;93.60
6752;DHT22;3413;47.680;9.166;2023-05-07T07:58:17;20.80;93.70
6752;DHT22;3413;47.680;9.166;2023-05-07T08:10:08;21.20;93.90
6752;DHT22;3413;47.680;9.166;2023-05-07T08:21:20;21.60;94.00
6752;DHT22;3413;47.680;9.166;2023-05-07T08:27:43;21.70;94.00
6752;DHT22;3413;47.680;9.166;2023-05-07T08:33:35;21.90;94.10
6752;DHT22;3413;47.680;9.166;2023-05-07T08:40:02;22.10;94.30
6752;DHT22;3413;47.680;9.166;2023-05-07T09:00:04;22.80;94.50
6752;DHT22;3413;47.680;9.166;2023-05-07T09:05:11;23.00;94.60
6752;DHT22;3413;47.680;9.166;2023-05-07T09:10:14;23.10;94.60
6752;DHT22;3413;47.680;9.166;2023-05-07T09:15:18;23.30;94.60
6752;DHT22;3413;47.680;9.166;2023-05-07T09:20:20;23.50;94.60
6752;DHT22;3413;47.680;9.166;2023-05-07T09:25:30;23.70;94.60
6752;DHT22;3413;47.680;9.166;2023-05-07T09:30:37;23.90;94.60
6752;DHT22;3413;47.680;9.166;2023-05-07T09:35:42;24.00;94.70
6752;DHT22;3413;47.680;9.166;2023-05-07T09:41:11;24.30;94.80
6752;DHT22;3413;47.680;9.166;2023-05-07T09:46:34;24.50;94.60
6752;DHT22;3413;47.680;9.166;2023-05-07T09:51:51;24.50;94.60
6752;DHT22;3413;47.680;9.166;2023-05-07T09:56:55;24.50;94.50
6752;DHT22;3413;47.680;9.166;2023-05-07T10:02:01;24.60;94.60
6752;DHT22;3413;47.680;9.166;2023-05-07T10:07:08;24.80;94.60
6752;DHT22;3413;47.680;9.166;2023-05-07T10:12:12;24.90;94.60
6752;DHT22;3413;47.680;9.166;2023-05-07T10:17:16;25.10;94.60
6752;DHT22;3413;47.680;9.166;2023-05-07T10:22:20;24.90;94.50
6752;DHT22;3413;47.680;9.166;2023-05-07T10:27:23;25.10;94.60
6752;DHT22;3413;47.680;9.166;2023-05-07T10:32:49;25.30;94.60
6752;DHT22;3413;47.680;9.166;2023-05-07T10:38:01;25.50;94.60
6752;DHT22;3413;47.680;9.166;2023-05-07T10:43:06;25.60;94.90
6752;DHT22;3413;47.680;9.166;2023-05-07T10:48:26;25.70;94.70
6752;DHT22;3413;47.680;9.166;2023-05-07T10:53:39;26.00;94.80
6752;DHT22;3413;47.680;9.166;2023-05-07T10:58:48;26.10;94.60
6752;DHT22;3413;47.680;9.166;2023-05-07T11:04:17;25.90;94.60
6752;DHT22;3413;47.680;9.166;2023-05-07T11:15:12;26.10;94.70
6752;DHT22;3413;47.680;9.166;2023-05-07T11:20:16;25.90;94.60
6752;DHT22;3413;47.680;9.166;2023-05-07T11:25:26;25.80;94.60
6752;DHT22;3413;47.680;9.166;2023-05-07T11:30:42;25.80;94.60
6752;DHT22;3413;47.680;9.166;2023-05-07T11:35:46;25.80;94.70
6752;DHT22;3413;47.680;9.166;2023-05-07T11:40:58;26.00;94.80
6752;DHT22;3413;47.680;9.166;2023-05-07T11:46:11;26.40;94.70
6752;DHT22;3413;47.680;9.166;2023-05-07T11:51:13;26.50;94.70
6752;DHT22;3413;47.680;9.166;2023-05-07T11:56:20;26.60;94.60
6752;DHT22;3413;47.680;9.166;2023-05-07T12:01:22;26.40;94.90
6752;DHT22;3413;47.680;9.166;2023-05-07T12:06:24;26.20;94.60
6752;DHT22;3413;47.680;9.166;2023-05-07T12:11:26;26.00;94.60
6752;DHT22;3413;47.680;9.166;2023-05-07T12:16:28;26.20;94.50
6752;DHT22;3413;47.680;9.166;2023-05-07T12:21:31;26.20;94.40
6752;DHT22;3413;47.680;9.166;2023-05-07T12:26:40;25.60;94.40
6752;DHT22;3413;47.680;9.166;2023-05-07T12:31:42;25.40;94.50
6752;DHT22;3413;47.680;9.166;2023-05-07T12:36:44;25.30;94.40
6752;DHT22;3413;47.680;9.166;2023-05-07T12:41:56;25.30;94.40
6752;DHT22;3413;47.680;9.166;2023-05-07T12:47:03;25.50;94.40
6752;DHT22;3413;47.680;9.166;2023-05-07T12:52:05;25.70;94.20
6752;DHT22;3413;47.680;9.166;2023-05-07T12:57:09;25.70;94.30
6752;DHT22;3413;47.680;9.166;2023-05-07T13:02:11;25.90;94.40
6752;DHT22;3413;47.680;9.166;2023-05-07T13:07:15;26.20;94.50
6752;DHT22;3413;47.680;9.166;2023-05-07T13:12:17;26.40;94.60
6752;DHT22;3413;47.680;9.166;2023-05-07T13:17:19;26.90;94.70
6752;DHT22;3413;47.680;9.166;2023-05-07T13:22:21;27.20;94.50
6752;DHT22;3413;47.680;9.166;2023-05-07T13:27:23;27.30;94.60
6752;DHT22;3413;47.680;9.166;2023-05-07T13:32:24;27.30;94.70
6752;DHT22;3413;47.680;9.166;2023-05-07T13:37:26;27.50;94.70
6752;DHT22;3413;47.680;9.166;2023-05-07T13:42:28;27.60;94.70
6752;DHT22;3413;47.680;9.166;2023-05-07T13:47:30;27.70;94.70
6752;DHT22;3413;47.680;9.166;2023-05-07T13:52:32;27.90;94.60
6752;DHT22;3413;47.680;9.166;2023-05-07T13:57:34;28.00;94.60
6752;DHT22;3413;47.680;9.166;2023-05-07T14:02:36;28.20;94.80
6752;DHT22;3413;47.680;9.166;2023-05-07T14:07:38;28.20;94.40
6752;DHT22;3413;47.680;9.166;2023-05-07T14:12:40;28.20;94.40
6752;DHT22;3413;47.680;9.166;2023-05-07T14:17:43;28.20;94.30
6752;DHT22;3413;47.680;9.166;2023-05-07T14:22:45;28.10;94.20
6752;DHT22;3413;47.680;9.166;2023-05-07T14:27:47;28.00;94.10
6752;DHT22;3413;47.680;9.166;2023-05-07T14:32:49;27.70;93.90
6752;DHT22;3413;47.680;9.166;2023-05-07T14:37:51;27.50;93.60
6752;DHT22;3413;47.680;9.166;2023-05-07T14:42:53;27.10;93.50
6752;DHT22;3413;47.680;9.166;2023-05-07T14:47:55;26.80;93.30
6752;DHT22;3413;47.680;9.166;2023-05-07T14:52:57;26.50;93.10
6752;DHT22;3413;47.680;9.166;2023-05-07T14:57:59;26.30;92.90
6752;DHT22;3413;47.680;9.166;2023-05-07T15:03:08;26.10;92.70
6752;DHT22;3413;47.680;9.166;2023-05-07T15:08:13;26.00;92.60
6752;DHT22;3413;47.680;9.166;2023-05-07T15:13:16;26.00;92.60
6752;DHT22;3413;47.680;9.166;2023-05-07T15:18:20;26.00;92.50
6752;DHT22;3413;47.680;9.166;2023-05-07T15:23:23;26.00;92.40
6752;DHT22;3413;47.680;9.166;2023-05-07T15:28:25;26.00;92.40
6752;DHT22;3413;47.680;9.166;2023-05-07T15:33:30;26.10;92.30
6752;DHT22;3413;47.680;9.166;2023-05-07T15:38:32;26.20;92.30
6752;DHT22;3413;47.680;9.166;2023-05-07T15:43:43;26.30;92.60
6752;DHT22;3413;47.680;9.166;2023-05-07T15:48:46;26.30;92.30
6752;DHT22;3413;47.680;9.166;2023-05-07T15:53:48;26.20;92.30
6752;DHT22;3413;47.680;9.166;2023-05-07T15:58:51;26.20;92.30
6752;DHT22;3413;47.680;9.166;2023-05-07T16:03:54;25.90;92.40
6752;DHT22;3413;47.680;9.166;2023-05-07T16:08:56;25.80;92.20
6752;DHT22;3413;47.680;9.166;2023-05-07T16:13:59;25.70;92.10
6752;DHT22;3413;47.680;9.166;2023-05-07T16:19:02;25.70;92.10
6752;DHT22;3413;47.680;9.166;2023-05-07T16:24:04;25.60;92.10
6752;DHT22;3413;47.680;9.166;2023-05-07T16:29:06;25.50;92.00
6752;DHT22;3413;47.680;9.166;2023-05-07T16:34:09;25.40;92.00
6752;DHT22;3413;47.680;9.166;2023-05-07T16:39:11;25.40;91.90
6752;DHT22;3413;47.680;9.166;2023-05-07T16:44:13;25.20;91.90
6752;DHT22;3413;47.680;9.166;2023-05-07T16:49:15;25.10;92.00
6752;DHT22;3413;47.680;9.166;2023-05-07T16:54:16;25.00;91.90
6752;DHT22;3413;47.680;9.166;2023-05-07T16:59:18;24.70;91.90
6752;DHT22;3413;47.680;9.166;2023-05-07T17:04:20;24.50;91.90
6752;DHT22;3413;47.680;9.166;2023-05-07T17:09:22;24.50;91.90
6752;DHT22;3413;47.680;9.166;2023-05-07T17:14:24;24.40;91.90
6752;DHT22;3413;47.680;9.166;2023-05-07T17:19:26;24.40;91.80
6752;DHT22;3413;47.680;9.166;2023-05-07T17:24:28;24.40;91.90
6752;DHT22;3413;47.680;9.166;2023-05-07T17:29:30;24.30;91.90
6752;DHT22;3413;47.680;9.166;2023-05-07T17:34:35;24.00;91.80
6752;DHT22;3413;47.680;9.166;2023-05-07T17:39:37;23.50;91.70
6752;DHT22;3413;47.680;9.166;2023-05-07T17:44:39;23.10;91.70
6752;DHT22;3413;47.680;9.166;2023-05-07T17:49:41;22.60;91.70
6752;DHT22;3413;47.680;9.166;2023-05-07T17:54:43;22.20;91.70
6752;DHT22;3413;47.680;9.166;2023-05-07T17:59:45;22.00;91.70
6752;DHT22;3413;47.680;9.166;2023-05-07T18:04:47;21.90;91.70
6752;DHT22;3413;47.680;9.166;2023-05-07T18:09:49;21.80;91.80
6752;DHT22;3413;47.680;9.166;2023-05-07T18:14:51;21.70;91.80
6752;DHT22;3413;47.680;9.166;2023-05-07T18:19:53;21.60;91.90
6752;DHT22;3413;47.680;9.166;2023-05-07T18:25:12;21.50;91.90
6752;DHT22;3413;47.680;9.166;2023-05-07T18:30:14;21.30;92.00
6752;DHT22;3413;47.680;9.166;2023-05-07T18:35:16;21.20;92.00
6752;DHT22;3413;47.680;9.166;2023-05-07T18:40:18;21.20;92.10
6752;DHT22;3413;47.680;9.166;2023-05-07T18:45:21;21.10;92.10
6752;DHT22;3413;47.680;9.166;2023-05-07T18:50:23;21.20;92.10
6752;DHT22;3413;47.680;9.166;2023-05-07T18:55:26;21.20;92.30
6752;DHT22;3413;47.680;9.166;2023-05-07T19:00:28;21.20;92.30
6752;DHT22;3413;47.680;9.166;2023-05-07T19:05:30;21.30;92.40
6752;DHT22;3413;47.680;9.166;2023-05-07T19:10:32;21.30;92.50
6752;DHT22;3413;47.680;9.166;2023-05-07T19:15:34;21.30;92.50
6752;DHT22;3413;47.680;9.166;2023-05-07T19:20:36;21.30;92.50
6752;DHT22;3413;47.680;9.166;2023-05-07T19:25:38;21.20;92.50
6752;DHT22;3413;47.680;9.166;2023-05-07T19:30:40;21.20;92.50
6752;DHT22;3413;47.680;9.166;2023-05-07T19:35:42;21.40;92.60
6752;DHT22;3413;47.680;9.166;2023-05-07T19:40:44;21.40;92.70
6752;DHT22;3413;47.680;9.166;2023-05-07T19:45:46;21.40;92.80
6752;DHT22;3413;47.680;9.166;2023-05-07T19:50:49;21.20;92.70
6752;DHT22;3413;47.680;9.166;2023-05-07T19:56:01;21.20;92.70
6752;DHT22;3413;47.680;9.166;2023-05-07T20:01:03;21.20;92.70
6752;DHT22;3413;47.680;9.166;2023-05-07T20:06:06;20.90;92.60
6752;DHT22;3413;47.680;9.166;2023-05-07T20:11:08;20.70;92.70
6752;DHT22;3413;47.680;9.166;2023-05-07T20:16:12;20.40;92.70
6752;DHT22;3413;47.680;9.166;2023-05-07T20:21:14;20.30;92.70
6752;DHT22;3413;47.680;9.166;2023-05-07T20:26:16;20.20;92.70
6752;DHT22;3413;47.680;9.166;2023-05-07T20:31:18;19.90;92.60
6752;DHT22;3413;47.680;9.166;2023-05-07T20:36:21;19.80;92.60
6752;DHT22;3413;47.680;9.166;2023-05-07T20:41:25;19.90;92.70
6752;DHT22;3413;47.680;9.166;2023-05-07T20:46:27;20.10;92.70
6752;DHT22;3413;47.680;9.166;2023-05-07T20:51:30;20.10;92.70
6752;DHT22;3413;47.680;9.166;2023-05-07T20:56:32;20.10;92.80
6752;DHT22;3413;47.680;9.166;2023-05-07T21:01:34;20.10;92.80
6752;DHT22;3413;47.680;9.166;2023-05-07T21:06:36;20.10;92.80
6752;DHT22;3413;47.680;9.166;2023-05-07T21:11:38;20.00;92.70
6752;DHT22;3413;47.680;9.166;2023-05-07T21:16:40;19.90;92.70
6752;DHT22;3413;47.680;9.166;2023-05-07T21:21:43;19.70;92.80
6752;DHT22;3413;47.680;9.166;2023-05-07T21:26:45;19.60;92.80
6752;DHT22;3413;47.680;9.166;2023-05-07T21:31:48;19.40;92.80
6752;DHT22;3413;47.680;9.166;2023-05-07T21:36:50;19.40;92.80
6752;DHT22;3413;47.680;9.166;2023-05-07T21:41:52;19.50;92.90
6752;DHT22;3413;47.680;9.166;2023-05-07T21:46:53;19.50;92.80
6752;DHT22;3413;47.680;9.166;2023-05-07T21:51:55;19.50;92.80
6752;DHT22;3413;47.680;9.166;2023-05-07T21:56:57;19.20;92.80
6752;DHT22;3413;47.680;9.166;2023-05-07T22:02:00;19.10;92.90
6752;DHT22;3413;47.680;9.166;2023-05-07T22:07:02;19.10;92.90
6752;DHT22;3413;47.680;9.166;2023-05-07T22:12:04;18.90;92.90
6752;DHT22;3413;47.680;9.166;2023-05-07T22:17:06;18.90;92.90
6752;DHT22;3413;47.680;9.166;2023-05-07T22:22:07;18.90;92.90
6752;DHT22;3413;47.680;9.166;2023-05-07T22:27:09;18.90;92.90
6752;DHT22;3413;47.680;9.166;2023-05-07T22:32:11;19.00;93.10
6752;DHT22;3413;47.680;9.166;2023-05-07T22:37:13;19.00;93.10
6752;DHT22;3413;47.680;9.166;2023-05-07T22:42:16;19.00;93.20
6752;DHT22;3413;47.680;9.166;2023-05-07T22:47:17;19.10;93.30
6752;DHT22;3413;47.680;9.166;2023-05-07T22:52:19;19.00;93.30
6752;DHT22;3413;47.680;9.166;2023-05-07T22:57:21;18.90;93.30
6752;DHT22;3413;47.680;9.166;2023-05-07T23:02:23;18.90;93.30
6752;DHT22;3413;47.680;9.166;2023-05-07T23:07:28;18.80;93.30
6752;DHT22;3413;47.680;9.166;2023-05-07T23:12:30;18.60;93.20
6752;DHT22;3413;47.680;9.166;2023-05-07T23:17:32;18.50;93.20
6752;DHT22;3413;47.680;9.166;2023-05-07T23:22:35;18.40;93.20
6752;DHT22;3413;47.680;9.166;2023-05-07T23:27:37;18.40;93.20
6752;DHT22;3413;47.680;9.166;2023-05-07T23:32:39;18.40;93.30
6752;DHT22;3413;47.680;9.166;2023-05-07T23:37:40;18.30;93.20
6752;DHT22;3413;47.680;9.166;2023-05-07T23:42:42;18.30;93.30
6752;DHT22;3413;47.680;9.166;2023-05-07T23:47:44;18.30;93.30
6752;DHT22;3413;47.680;9.166;2023-05-07T23:52:47;18.30;93.30
6752;DHT22;3413;47.680;9.166;2023-05-07T23:57:48;18.40;93.40
